createdAt,value
2018-05-16T00:00:16.053Z,23.10
2018-05-16T00:01:16.046Z,22.70
2018-05-16T00:02:16.330Z,21.80
2018-05-16T00:03:16.213Z,22.10
2018-05-16T00:04:16.318Z,23.20
2018-05-16T00:05:16.699Z,23.30
2018-05-16T00:06:16.151Z,19.50
2018-05-16T00:08:15.651Z,22.00
2018-05-16T00:09:15.792Z,19.30
2018-05-16T00:10:22.933Z,19.20
2018-05-16T00:11:16.191Z,19.00
2018-05-16T00:12:15.738Z,19.70
2018-05-16T00:14:16.041Z,20.60
2018-05-16T00:15:28.491Z,18.80
2018-05-16T00:16:15.765Z,19.20
2018-05-16T00:17:15.779Z,20.70
2018-05-16T00:18:19.915Z,22.90
2018-05-16T00:19:17.575Z,27.00
2018-05-16T00:21:16.786Z,41.90
2018-05-16T00:23:15.895Z,29.80
2018-05-16T00:24:15.986Z,27.50
2018-05-16T00:25:15.926Z,25.50
2018-05-16T00:26:15.925Z,24.50
2018-05-16T00:28:17.359Z,22.00
2018-05-16T00:29:16.650Z,23.00
2018-05-16T00:32:18.485Z,23.70
2018-05-16T00:38:35.422Z,21.30
2018-05-16T00:40:21.177Z,20.70
2018-05-16T00:41:01.306Z,22.50
2018-05-16T00:42:00.683Z,22.80
2018-05-16T00:44:01.624Z,21.60
2018-05-16T00:45:00.799Z,22.70
2018-05-16T00:46:00.947Z,21.80
2018-05-16T00:47:01.154Z,21.90
2018-05-16T00:48:01.777Z,23.70
2018-05-16T00:49:01.325Z,22.30
2018-05-16T00:50:01.522Z,22.90
2018-05-16T00:51:01.629Z,23.20
2018-05-16T00:52:00.800Z,22.90
2018-05-16T00:53:01.912Z,23.70
2018-05-16T00:54:27.036Z,23.70
2018-05-16T00:57:02.263Z,24.50
2018-05-16T00:58:01.315Z,24.50
2018-05-16T00:59:00.900Z,25.10
2018-05-16T01:00:01.022Z,24.80
2018-05-16T01:01:01.485Z,24.30
2018-05-16T01:02:01.419Z,23.10
2018-05-16T01:03:04.570Z,25.20
2018-05-16T01:04:00.966Z,24.40
2018-05-16T01:05:02.655Z,24.00
2018-05-16T01:07:14.384Z,25.30
2018-05-16T01:08:01.944Z,24.30
2018-05-16T01:09:01.668Z,23.20
2018-05-16T01:10:08.409Z,20.60
2018-05-16T01:11:01.905Z,24.00
2018-05-16T01:12:01.766Z,26.80
2018-05-16T01:13:01.675Z,24.90
2018-05-16T01:14:01.705Z,24.30
2018-05-16T01:15:01.972Z,21.90
2018-05-16T01:16:02.242Z,23.80
2018-05-16T01:17:01.894Z,23.80
2018-05-16T01:18:02.287Z,22.60
2018-05-16T01:20:01.971Z,24.10
2018-05-16T01:21:01.208Z,24.10
2018-05-16T01:22:02.225Z,26.90
2018-05-16T01:23:01.725Z,27.90
2018-05-16T01:24:14.521Z,25.50
2018-05-16T01:26:03.500Z,25.80
2018-05-16T01:27:01.296Z,26.40
2018-05-16T01:28:01.327Z,27.00
2018-05-16T01:29:01.795Z,26.70
2018-05-16T01:30:02.005Z,23.40
2018-05-16T01:31:02.286Z,24.70
2018-05-16T01:32:02.702Z,24.50
2018-05-16T01:33:02.048Z,26.90
2018-05-16T01:34:02.076Z,27.10
2018-05-16T01:35:02.000Z,23.60
2018-05-16T01:36:01.976Z,24.30
2018-05-16T01:37:02.100Z,25.60
2018-05-16T01:38:02.139Z,28.50
2018-05-16T01:39:01.499Z,30.10
2018-05-16T01:40:01.655Z,31.10
2018-05-16T01:41:01.495Z,31.10
2018-05-16T01:42:02.060Z,29.90
2018-05-16T01:43:02.081Z,28.50
2018-05-16T01:44:02.079Z,30.70
2018-05-16T01:46:02.179Z,31.00
2018-05-16T01:47:02.112Z,29.80
2018-05-16T01:48:01.587Z,26.20
2018-05-16T01:49:01.604Z,31.10
2018-05-16T01:50:02.264Z,31.70
2018-05-16T01:51:02.404Z,31.00
2018-05-16T01:52:01.670Z,31.30
2018-05-16T01:53:02.619Z,31.70
2018-05-16T01:55:02.616Z,30.00
2018-05-16T01:57:21.524Z,29.00
2018-05-16T01:58:01.724Z,29.70
2018-05-16T01:59:01.768Z,30.80
2018-05-16T02:00:01.854Z,32.50
2018-05-16T02:01:01.765Z,32.70
2018-05-16T02:02:01.807Z,35.50
2018-05-16T02:03:01.802Z,34.60
2018-05-16T02:04:01.840Z,34.70
2018-05-16T02:05:01.921Z,34.60
2018-05-16T02:06:01.838Z,35.30
2018-05-16T02:07:01.854Z,35.40
2018-05-16T02:08:01.861Z,34.90
2018-05-16T02:09:01.901Z,34.90
2018-05-16T02:10:02.028Z,39.20
2018-05-16T02:11:01.909Z,42.40
2018-05-16T02:12:01.945Z,37.90
2018-05-16T02:13:01.958Z,37.10
2018-05-16T02:14:01.969Z,45.40
2018-05-16T02:15:02.112Z,42.00
2018-05-16T02:16:01.978Z,38.20
2018-05-16T02:17:01.988Z,38.30
2018-05-16T02:18:02.032Z,36.80
2018-05-16T02:19:02.009Z,44.30
2018-05-16T02:20:02.137Z,42.10
2018-05-16T02:21:02.069Z,39.90
2018-05-16T02:22:02.084Z,39.80
2018-05-16T02:23:02.090Z,39.60
2018-05-16T02:24:02.088Z,37.90
2018-05-16T02:25:03.353Z,37.10
2018-05-16T02:26:02.312Z,35.50
2018-05-16T02:27:02.123Z,37.90
2018-05-16T02:29:03.629Z,38.60
2018-05-16T02:30:02.330Z,40.80
2018-05-16T02:31:02.206Z,58.20
2018-05-16T02:32:02.194Z,52.30
2018-05-16T02:33:02.233Z,48.60
2018-05-16T02:34:02.254Z,46.60
2018-05-16T02:35:02.434Z,46.00
2018-05-16T02:36:04.289Z,43.90
2018-05-16T02:37:02.258Z,44.90
2018-05-16T02:38:02.298Z,44.90
2018-05-16T02:39:02.285Z,44.50
2018-05-16T02:40:02.315Z,42.90
2018-05-16T02:41:02.442Z,46.80
2018-05-16T02:42:02.338Z,45.00
2018-05-16T02:43:02.369Z,47.50
2018-05-16T02:44:02.388Z,48.30
2018-05-16T02:45:02.397Z,46.00
2018-05-16T02:46:02.500Z,47.90
2018-05-16T02:47:02.400Z,47.50
2018-05-16T02:48:02.408Z,51.00
2018-05-16T02:49:02.421Z,54.40
2018-05-16T02:50:02.464Z,53.30
2018-05-16T02:51:02.578Z,54.20
2018-05-16T02:52:02.470Z,55.60
2018-05-16T02:53:02.479Z,57.00
2018-05-16T02:54:02.491Z,52.60
2018-05-16T02:55:02.504Z,53.20
2018-05-16T02:56:02.629Z,52.90
2018-05-16T02:57:02.559Z,53.30
2018-05-16T02:58:02.558Z,52.10
2018-05-16T02:59:02.585Z,53.80
2018-05-16T03:00:02.588Z,56.90
2018-05-16T03:01:02.690Z,56.10
2018-05-16T03:02:02.616Z,55.20
2018-05-16T03:03:02.629Z,59.10
2018-05-16T03:04:02.643Z,58.00
2018-05-16T03:05:02.667Z,55.20
2018-05-16T03:06:02.771Z,57.10
2018-05-16T03:07:02.672Z,58.40
2018-05-16T03:08:02.710Z,58.40
2018-05-16T03:09:02.724Z,60.50
2018-05-16T03:10:02.709Z,60.10
2018-05-16T03:11:02.821Z,61.90
2018-05-16T03:12:02.741Z,54.40
2018-05-16T03:13:02.744Z,53.60
2018-05-16T03:14:02.763Z,53.10
2018-05-16T03:15:02.784Z,59.10
2018-05-16T03:16:02.894Z,62.00
2018-05-16T03:17:02.812Z,58.80
2018-05-16T03:18:04.086Z,61.20
2018-05-16T03:19:03.486Z,57.20
2018-05-16T03:20:02.873Z,62.50
2018-05-16T03:21:02.962Z,59.60
2018-05-16T03:22:02.879Z,63.60
2018-05-16T03:23:02.886Z,66.00
2018-05-16T03:24:02.906Z,58.60
2018-05-16T03:25:02.915Z,78.10
2018-05-16T03:26:03.034Z,69.70
2018-05-16T03:27:02.972Z,73.70
2018-05-16T03:28:02.981Z,69.40
2018-05-16T03:29:02.979Z,76.30
2018-05-16T03:30:02.984Z,70.90
2018-05-16T03:31:03.096Z,64.30
2018-05-16T03:32:03.034Z,68.20
2018-05-16T03:33:03.027Z,66.70
2018-05-16T03:34:03.047Z,68.70
2018-05-16T03:35:03.059Z,66.80
2018-05-16T03:36:03.185Z,76.30
2018-05-16T03:37:03.108Z,64.70
2018-05-16T03:38:03.090Z,66.80
2018-05-16T03:39:03.099Z,75.20
2018-05-16T03:40:03.139Z,77.10
2018-05-16T03:41:03.275Z,74.10
2018-05-16T03:42:03.141Z,74.20
2018-05-16T03:43:03.154Z,73.40
2018-05-16T03:44:03.200Z,85.10
2018-05-16T03:45:03.184Z,84.20
2018-05-16T03:46:03.194Z,71.30
2018-05-16T03:47:03.309Z,70.70
2018-05-16T03:48:04.203Z,76.20
2018-05-16T03:49:16.439Z,76.20
2018-05-16T03:50:03.488Z,87.70
2018-05-16T03:51:03.265Z,88.70
2018-05-16T03:52:03.389Z,79.60
2018-05-16T03:53:03.300Z,65.80
2018-05-16T03:54:03.302Z,70.20
2018-05-16T03:55:03.345Z,76.10
2018-05-16T03:56:03.342Z,76.40
2018-05-16T03:57:03.449Z,76.90
2018-05-16T03:58:03.356Z,76.80
2018-05-16T03:59:03.395Z,85.10
2018-05-16T04:00:03.922Z,67.90
2018-05-16T04:01:03.396Z,76.90
2018-05-16T04:02:03.513Z,86.50
2018-05-16T04:03:03.420Z,95.80
2018-05-16T04:04:03.436Z,81.50
2018-05-16T04:05:03.454Z,82.50
2018-05-16T04:06:03.491Z,78.10
2018-05-16T04:07:03.607Z,82.70
2018-05-16T04:08:03.492Z,82.00
2018-05-16T04:09:03.505Z,88.20
2018-05-16T04:10:03.719Z,78.80
2018-05-16T04:11:03.555Z,79.60
2018-05-16T04:12:03.672Z,85.20
2018-05-16T04:13:03.586Z,87.10
2018-05-16T04:14:04.146Z,100.60
2018-05-16T04:15:05.504Z,94.70
2018-05-16T04:16:03.598Z,95.40
2018-05-16T04:17:03.727Z,102.40
2018-05-16T04:18:03.654Z,115.70
2018-05-16T04:19:03.845Z,126.10
2018-05-16T04:20:03.852Z,123.90
2018-05-16T04:21:03.696Z,123.10
2018-05-16T04:22:04.740Z,111.10
2018-05-16T04:23:04.271Z,103.00
2018-05-16T04:24:03.735Z,97.90
2018-05-16T04:25:38.548Z,113.70
2018-05-16T04:27:03.853Z,163.60
2018-05-16T04:28:03.763Z,137.00
2018-05-16T04:29:03.798Z,118.30
2018-05-16T04:30:03.797Z,120.70
2018-05-16T04:31:03.802Z,115.30
2018-05-16T04:34:04.896Z,124.30
2018-05-16T04:35:03.881Z,118.70
2018-05-16T04:36:03.861Z,154.30
2018-05-16T04:37:03.995Z,146.70
2018-05-16T04:38:03.921Z,151.00
2018-05-16T04:39:03.909Z,132.70
2018-05-16T04:40:03.946Z,135.70
2018-05-16T04:41:03.940Z,128.50
2018-05-16T04:42:04.129Z,138.10
2018-05-16T04:44:06.270Z,174.40
2018-05-16T04:45:04.765Z,155.90
2018-05-16T04:46:04.000Z,164.40
2018-05-16T04:47:04.144Z,162.90
2018-05-16T04:48:04.026Z,169.70
2018-05-16T04:49:04.034Z,187.40
2018-05-16T04:50:04.082Z,167.00
2018-05-16T04:51:04.098Z,158.10
2018-05-16T04:52:04.209Z,146.30
2018-05-16T04:53:04.096Z,148.00
2018-05-16T04:54:04.108Z,148.40
2018-05-16T04:55:04.121Z,140.70
2018-05-16T04:56:04.137Z,136.10
2018-05-16T04:57:04.252Z,135.70
2018-05-16T04:58:04.174Z,133.60
2018-05-16T04:59:04.175Z,133.90
2018-05-16T05:00:04.188Z,132.90
2018-05-16T05:01:04.259Z,133.20
2018-05-16T05:02:04.343Z,135.30
2018-05-16T05:03:04.244Z,132.90
2018-05-16T05:04:04.269Z,129.00
2018-05-16T05:05:04.261Z,138.50
2018-05-16T05:06:04.297Z,136.50
2018-05-16T05:07:04.385Z,143.00
2018-05-16T05:08:04.297Z,141.60
2018-05-16T05:09:04.351Z,135.80
2018-05-16T05:10:04.326Z,148.30
2018-05-16T05:11:04.339Z,146.90
2018-05-16T05:12:04.448Z,142.70
2018-05-16T05:13:04.392Z,150.50
2018-05-16T05:14:04.814Z,173.70
2018-05-16T05:15:05.542Z,143.10
2018-05-16T05:16:04.405Z,149.20
2018-05-16T05:17:04.521Z,126.40
2018-05-16T05:18:04.462Z,134.30
2018-05-16T05:19:04.445Z,117.90
2018-05-16T05:20:04.453Z,110.40
2018-05-16T05:21:04.477Z,109.80
2018-05-16T05:22:04.582Z,103.60
2018-05-16T05:23:04.522Z,97.90
2018-05-16T05:24:04.579Z,102.40
2018-05-16T05:25:04.527Z,96.30
2018-05-16T05:26:04.565Z,100.70
2018-05-16T05:27:04.653Z,100.10
2018-05-16T05:28:04.608Z,102.30
2018-05-16T05:29:04.576Z,105.60
2018-05-16T05:30:04.619Z,112.60
2018-05-16T05:31:04.631Z,116.70
2018-05-16T05:32:04.720Z,110.30
2018-05-16T05:33:04.638Z,111.20
2018-05-16T05:34:04.669Z,110.80
2018-05-16T05:35:04.673Z,112.10
2018-05-16T05:36:05.177Z,109.20
2018-05-16T05:37:06.706Z,107.80
2018-05-16T05:38:04.723Z,105.30
2018-05-16T05:39:04.743Z,105.20
2018-05-16T05:40:04.724Z,107.10
2018-05-16T05:41:04.739Z,108.20
2018-05-16T05:42:04.853Z,105.60
2018-05-16T05:43:04.793Z,107.20
2018-05-16T05:44:04.787Z,110.10
2018-05-16T05:45:04.791Z,111.20
2018-05-16T05:46:04.832Z,104.20
2018-05-16T05:47:04.974Z,107.10
2018-05-16T05:48:04.836Z,98.20
2018-05-16T05:49:04.878Z,91.90
2018-05-16T05:50:04.856Z,84.80
2018-05-16T05:51:04.902Z,87.70
2018-05-16T05:52:04.991Z,91.10
2018-05-16T05:53:04.903Z,88.40
2018-05-16T05:54:04.919Z,79.30
2018-05-16T05:55:04.933Z,80.10
2018-05-16T05:56:04.971Z,83.10
2018-05-16T05:57:05.064Z,80.40
2018-05-16T05:58:04.989Z,86.00
2018-05-16T05:59:04.989Z,89.40
2018-05-16T06:00:05.081Z,91.00
2018-05-16T06:01:05.040Z,94.30
2018-05-16T06:02:05.130Z,93.30
2018-05-16T06:03:05.265Z,89.50
2018-05-16T06:04:05.070Z,91.90
2018-05-16T06:05:05.121Z,95.10
2018-05-16T06:06:05.105Z,99.80
2018-05-16T06:07:05.231Z,102.70
2018-05-16T06:08:05.154Z,99.00
2018-05-16T06:09:05.170Z,106.20
2018-05-16T06:10:05.182Z,113.50
2018-05-16T06:11:05.195Z,108.90
2018-05-16T06:12:05.213Z,106.60
2018-05-16T06:13:05.353Z,110.30
2018-05-16T06:14:05.237Z,111.30
2018-05-16T06:15:05.226Z,113.40
2018-05-16T06:16:05.267Z,115.10
2018-05-16T06:17:05.279Z,116.90
2018-05-16T06:18:05.371Z,119.90
2018-05-16T06:19:05.306Z,124.30
2018-05-16T06:20:05.322Z,124.40
2018-05-16T06:21:05.337Z,120.10
2018-05-16T06:22:05.326Z,119.50
2018-05-16T06:23:05.443Z,121.40
2018-05-16T06:24:05.377Z,118.60
2018-05-16T06:25:05.375Z,123.30
2018-05-16T06:26:05.402Z,116.90
2018-05-16T06:27:05.545Z,118.10
2018-05-16T06:28:05.530Z,115.10
2018-05-16T06:29:05.420Z,114.10
2018-05-16T06:30:05.441Z,115.40
2018-05-16T06:31:05.446Z,113.80
2018-05-16T06:32:05.460Z,113.50
2018-05-16T06:33:05.587Z,111.70
2018-05-16T06:34:05.487Z,113.30
2018-05-16T06:35:05.524Z,116.60
2018-05-16T06:36:05.512Z,124.90
2018-05-16T06:37:05.526Z,122.50
2018-05-16T06:38:05.644Z,123.70
2018-05-16T06:39:05.579Z,122.70
2018-05-16T06:40:05.578Z,124.70
2018-05-16T06:41:05.582Z,126.00
2018-05-16T06:42:05.595Z,124.20
2018-05-16T06:43:05.785Z,117.70
2018-05-16T06:44:05.622Z,122.40
2018-05-16T06:45:05.662Z,130.60
2018-05-16T06:46:05.677Z,120.60
2018-05-16T06:47:05.662Z,122.10
2018-05-16T06:48:05.783Z,119.00
2018-05-16T06:49:05.717Z,122.00
2018-05-16T06:50:07.607Z,118.40
2018-05-16T06:51:10.035Z,119.10
2018-05-16T06:52:05.735Z,122.10
2018-05-16T06:53:05.864Z,122.40
2018-05-16T06:54:05.733Z,124.00
2018-05-16T06:55:05.752Z,125.10
2018-05-16T06:56:05.789Z,119.30
2018-05-16T06:57:05.781Z,117.60
2018-05-16T06:58:05.902Z,115.20
2018-05-16T06:59:05.809Z,120.40
2018-05-16T07:00:05.842Z,113.60
2018-05-16T07:01:05.853Z,116.30
2018-05-16T07:02:05.867Z,116.00
2018-05-16T07:03:05.959Z,115.20
2018-05-16T07:04:05.944Z,109.40
2018-05-16T07:05:05.897Z,107.90
2018-05-16T07:06:05.928Z,105.80
2018-05-16T07:07:05.935Z,120.20
2018-05-16T07:08:06.072Z,122.30
2018-05-16T07:09:05.953Z,115.90
2018-05-16T07:10:05.979Z,113.70
2018-05-16T07:11:05.992Z,113.60
2018-05-16T07:12:05.991Z,111.10
2018-05-16T07:13:06.090Z,110.10
2018-05-16T07:14:05.998Z,111.80
2018-05-16T07:15:06.046Z,113.90
2018-05-16T07:16:06.066Z,120.70
2018-05-16T07:17:06.070Z,121.80
2018-05-16T07:18:06.160Z,119.80
2018-05-16T07:19:06.078Z,126.10
2018-05-16T07:20:06.083Z,137.50
2018-05-16T07:21:06.125Z,132.70
2018-05-16T07:22:06.123Z,132.60
2018-05-16T07:23:06.137Z,138.50
2018-05-16T07:24:06.291Z,139.50
2018-05-16T07:25:06.154Z,137.50
2018-05-16T07:26:06.163Z,127.70
2018-05-16T07:27:06.207Z,146.60
2018-05-16T07:28:06.220Z,147.20
2018-05-16T07:29:06.304Z,132.90
2018-05-16T07:30:06.226Z,120.30
2018-05-16T07:31:06.242Z,129.00
2018-05-16T07:32:06.272Z,140.50
2018-05-16T07:33:06.282Z,131.70
2018-05-16T07:34:06.380Z,110.80
2018-05-16T07:35:06.285Z,131.30
2018-05-16T07:36:06.322Z,134.60
2018-05-16T07:37:06.334Z,124.70
2018-05-16T07:38:06.349Z,99.70
2018-05-16T07:39:06.441Z,102.70
2018-05-16T07:40:06.357Z,115.30
2018-05-16T07:41:06.444Z,123.20
2018-05-16T07:42:06.378Z,125.00
2018-05-16T07:43:06.418Z,117.30
2018-05-16T07:44:06.504Z,109.00
2018-05-16T07:45:06.423Z,106.20
2018-05-16T07:46:06.440Z,109.80
2018-05-16T07:47:06.552Z,118.50
2018-05-16T07:48:06.487Z,107.60
2018-05-16T07:49:06.648Z,111.60
2018-05-16T07:50:06.522Z,117.10
2018-05-16T07:51:06.503Z,121.80
2018-05-16T07:52:06.508Z,124.30
2018-05-16T07:53:06.545Z,132.30
2018-05-16T07:54:06.636Z,121.40
2018-05-16T07:55:06.564Z,135.10
2018-05-16T07:56:06.585Z,105.70
2018-05-16T07:57:06.573Z,122.40
2018-05-16T07:58:06.612Z,125.30
2018-05-16T07:59:06.727Z,119.40
2018-05-16T08:00:06.620Z,143.50
2018-05-16T08:01:06.630Z,158.70
2018-05-16T08:02:06.667Z,114.60
2018-05-16T08:03:06.752Z,129.60
2018-05-16T08:04:06.760Z,121.80
2018-05-16T08:05:06.685Z,130.40
2018-05-16T08:06:06.718Z,123.40
2018-05-16T08:07:06.737Z,125.00
2018-05-16T08:08:06.716Z,127.40
2018-05-16T08:09:06.909Z,126.90
2018-05-16T08:10:06.745Z,135.50
2018-05-16T08:11:06.766Z,129.00
2018-05-16T08:12:06.799Z,126.70
2018-05-16T08:13:07.817Z,120.70
2018-05-16T08:14:06.898Z,125.90
2018-05-16T08:15:06.812Z,134.00
2018-05-16T08:16:06.823Z,134.80
2018-05-16T08:17:06.843Z,126.50
2018-05-16T08:18:06.848Z,129.00
2018-05-16T08:19:06.988Z,121.90
2018-05-16T08:20:06.909Z,117.90
2018-05-16T08:21:06.912Z,134.90
2018-05-16T08:22:06.925Z,123.60
2018-05-16T08:23:06.940Z,126.00
2018-05-16T08:24:07.100Z,132.70
2018-05-16T08:25:06.950Z,113.50
2018-05-16T08:26:06.951Z,130.70
2018-05-16T08:27:06.964Z,128.80
2018-05-16T08:28:06.976Z,145.40
2018-05-16T08:29:07.095Z,126.00
2018-05-16T08:30:07.568Z,131.70
2018-05-16T08:31:10.584Z,135.90
2018-05-16T08:32:07.025Z,121.10
2018-05-16T08:33:07.042Z,123.40
2018-05-16T08:34:07.147Z,134.70
2018-05-16T08:35:07.061Z,131.30
2018-05-16T08:36:07.606Z,125.90
2018-05-16T08:37:07.643Z,131.90
2018-05-16T08:38:07.107Z,125.50
2018-05-16T08:39:07.140Z,116.60
2018-05-16T08:40:07.229Z,130.70
2018-05-16T08:41:07.141Z,127.90
2018-05-16T08:42:07.180Z,121.50
2018-05-16T08:43:07.236Z,123.80
2018-05-16T08:44:07.183Z,132.30
2018-05-16T08:45:07.880Z,130.10
2018-05-16T08:46:07.206Z,129.10
2018-05-16T08:47:07.233Z,137.90
2018-05-16T08:48:07.225Z,132.50
2018-05-16T08:49:07.245Z,125.60
2018-05-16T08:50:07.356Z,127.00
2018-05-16T08:51:07.276Z,122.80
2018-05-16T08:52:07.280Z,130.80
2018-05-16T08:53:07.301Z,122.20
2018-05-16T08:54:07.309Z,115.00
2018-05-16T08:55:07.499Z,115.10
2018-05-16T08:56:07.333Z,116.60
2018-05-16T08:57:07.372Z,117.70
2018-05-16T08:58:07.374Z,122.20
2018-05-16T08:59:07.370Z,123.20
2018-05-16T09:00:07.495Z,121.70
2018-05-16T09:01:07.484Z,138.00
2018-05-16T09:02:07.406Z,126.40
2018-05-16T09:03:07.434Z,136.00
2018-05-16T09:04:07.445Z,128.90
2018-05-16T09:05:07.622Z,135.70
2018-05-16T09:06:07.488Z,135.00
2018-05-16T09:07:07.494Z,130.30
2018-05-16T09:08:07.513Z,117.20
2018-05-16T09:09:07.497Z,124.30
2018-05-16T09:10:08.158Z,124.50
2018-05-16T09:11:07.535Z,123.40
2018-05-16T09:12:07.568Z,118.20
2018-05-16T09:13:07.550Z,124.20
2018-05-16T09:14:07.594Z,127.50
2018-05-16T09:15:07.674Z,129.70
2018-05-16T09:16:07.590Z,119.90
2018-05-16T09:17:07.693Z,122.90
2018-05-16T09:18:07.625Z,140.40
2018-05-16T09:19:07.625Z,120.10
2018-05-16T09:20:07.765Z,118.90
2018-05-16T09:21:07.649Z,112.80
2018-05-16T09:22:07.687Z,117.30
2018-05-16T09:23:07.708Z,117.10
2018-05-16T09:24:07.713Z,138.70
2018-05-16T09:25:07.873Z,125.10
2018-05-16T09:26:07.743Z,133.00
2018-05-16T09:27:07.735Z,123.70
2018-05-16T09:28:07.739Z,118.30
2018-05-16T09:29:07.756Z,115.00
2018-05-16T09:30:07.865Z,100.50
2018-05-16T09:31:07.786Z,116.10
2018-05-16T09:32:07.815Z,108.90
2018-05-16T09:33:07.832Z,102.70
2018-05-16T09:34:07.814Z,115.40
2018-05-16T09:35:07.945Z,140.80
2018-05-16T09:36:07.852Z,131.40
2018-05-16T09:37:07.882Z,108.30
2018-05-16T09:38:07.896Z,119.80
2018-05-16T09:39:07.904Z,109.30
2018-05-16T09:40:07.993Z,93.20
2018-05-16T09:41:07.903Z,110.10
2018-05-16T09:42:07.931Z,101.70
2018-05-16T09:43:08.461Z,109.00
2018-05-16T09:44:08.151Z,113.20
2018-05-16T09:45:08.058Z,127.90
2018-05-16T09:46:07.994Z,133.50
2018-05-16T09:47:07.983Z,111.90
2018-05-16T09:48:07.990Z,101.60
2018-05-16T09:49:08.020Z,102.10
2018-05-16T09:50:08.193Z,107.00
2018-05-16T09:51:08.056Z,107.90
2018-05-16T09:52:08.039Z,86.70
2018-05-16T09:53:08.056Z,86.60
2018-05-16T09:54:08.070Z,86.50
2018-05-16T09:55:08.115Z,102.30
2018-05-16T09:56:08.193Z,112.10
2018-05-16T09:57:08.107Z,103.60
2018-05-16T09:58:08.128Z,106.50
2018-05-16T09:59:08.678Z,106.70
2018-05-16T10:00:08.676Z,102.90
2018-05-16T10:01:09.234Z,100.50
2018-05-16T10:02:08.204Z,93.10
2018-05-16T10:03:08.723Z,95.00
2018-05-16T10:04:08.790Z,95.20
2018-05-16T10:05:08.215Z,94.20
2018-05-16T10:06:09.524Z,89.30
2018-05-16T10:07:09.819Z,85.80
2018-05-16T10:09:08.914Z,90.50
2018-05-16T10:10:10.556Z,94.90
2018-05-16T10:11:09.226Z,97.80
2018-05-16T10:15:08.916Z,62.10
2018-05-16T10:17:09.179Z,79.70
2018-05-16T10:20:09.260Z,70.50
2018-05-16T10:21:09.197Z,63.30
2018-05-16T10:22:12.350Z,57.20
2018-05-16T10:23:09.951Z,55.80
2018-05-16T10:24:09.465Z,59.90
2018-05-16T10:26:09.154Z,69.70
2018-05-16T10:27:09.052Z,55.20
2018-05-16T10:29:09.401Z,61.40
2018-05-16T10:30:09.271Z,65.30
2018-05-16T10:31:09.312Z,65.00
2018-05-16T10:32:12.634Z,66.10
2018-05-16T10:33:09.076Z,60.00
2018-05-16T10:34:09.248Z,52.00
2018-05-16T10:35:08.625Z,53.20
2018-05-16T10:36:09.678Z,59.20
2018-05-16T10:37:09.550Z,53.50
2018-05-16T10:38:10.611Z,57.40
2018-05-16T10:40:09.290Z,52.70
2018-05-16T10:41:09.706Z,56.70
2018-05-16T10:44:10.414Z,56.50
2018-05-16T10:49:09.730Z,55.30
2018-05-16T10:50:09.447Z,51.00
2018-05-16T10:51:11.384Z,46.20
2018-05-16T10:52:09.846Z,51.90
2018-05-16T10:56:09.122Z,48.90
2018-05-16T10:57:09.613Z,51.00
2018-05-16T10:58:12.569Z,49.00
2018-05-16T10:59:22.599Z,48.50
2018-05-16T11:00:10.171Z,46.60
2018-05-16T11:01:09.010Z,46.30
2018-05-16T11:02:09.708Z,45.50
2018-05-16T11:03:09.071Z,47.40
2018-05-16T11:05:09.080Z,46.90
2018-05-16T11:06:09.113Z,49.90
2018-05-16T11:07:09.768Z,52.10
2018-05-16T11:09:09.869Z,49.90
2018-05-16T11:10:10.014Z,51.70
2018-05-16T11:11:09.678Z,47.30
2018-05-16T11:12:09.917Z,50.60
2018-05-16T11:13:09.195Z,49.40
2018-05-16T11:14:09.247Z,46.50
2018-05-16T11:15:09.271Z,42.70
2018-05-16T11:16:09.265Z,38.20
2018-05-16T11:17:09.380Z,38.50
2018-05-16T11:18:09.286Z,39.60
2018-05-16T11:19:09.302Z,38.10
2018-05-16T11:20:09.326Z,38.70
2018-05-16T11:21:09.536Z,38.70
2018-05-16T11:22:09.527Z,41.60
2018-05-16T11:23:09.366Z,43.00
2018-05-16T11:24:09.396Z,45.20
2018-05-16T11:25:09.405Z,48.10
2018-05-16T11:26:09.414Z,44.20
2018-05-16T11:27:09.562Z,47.80
2018-05-16T11:28:09.461Z,53.10
2018-05-16T11:29:22.837Z,54.10
2018-05-16T11:32:10.225Z,40.50
2018-05-16T11:34:11.073Z,25.30
2018-05-16T11:35:17.167Z,19.70
2018-05-16T11:37:23.077Z,8.70
2018-05-16T11:38:10.243Z,6.20
2018-05-16T11:39:13.282Z,4.70
2018-05-16T11:40:10.986Z,5.00
2018-05-16T11:43:10.515Z,4.80
2018-05-16T11:44:10.852Z,4.70
2018-05-16T11:45:13.668Z,4.70
2018-05-16T11:47:11.162Z,5.50
2018-05-16T11:48:29.915Z,5.60
2018-05-16T11:50:36.415Z,7.80
2018-05-16T11:52:10.579Z,10.00
2018-05-16T11:53:11.866Z,10.70
2018-05-16T11:54:11.413Z,10.90
2018-05-16T11:58:11.072Z,12.00
2018-05-16T11:59:10.535Z,12.20
2018-05-16T12:00:11.133Z,12.80
2018-05-16T12:02:11.286Z,13.70
2018-05-16T12:03:14.419Z,9.00
2018-05-16T12:04:10.705Z,8.40
2018-05-16T12:05:10.702Z,8.50
2018-05-16T12:09:10.728Z,5.30
2018-05-16T12:10:10.900Z,5.20
2018-05-16T12:11:12.221Z,5.00
2018-05-16T12:12:13.965Z,5.10
2018-05-16T12:14:10.883Z,5.10
2018-05-16T12:16:11.296Z,5.10
2018-05-16T12:17:12.060Z,5.00
2018-05-16T12:18:10.856Z,5.00
2018-05-16T12:19:10.875Z,5.20
2018-05-16T12:20:11.895Z,5.50
2018-05-16T12:23:11.294Z,5.30
2018-05-16T12:24:11.057Z,5.60
2018-05-16T12:25:11.099Z,5.50
2018-05-16T12:26:17.993Z,5.60
2018-05-16T12:27:11.700Z,5.90
2018-05-16T12:29:11.793Z,6.00
2018-05-16T12:31:11.882Z,5.70
2018-05-16T12:32:11.631Z,6.00
2018-05-16T12:33:10.629Z,5.80
2018-05-16T12:34:10.616Z,6.30
2018-05-16T12:35:10.642Z,6.40
2018-05-16T12:36:10.658Z,5.70
2018-05-16T12:37:10.824Z,7.10
2018-05-16T12:38:10.727Z,6.70
2018-05-16T12:39:10.728Z,6.10
2018-05-16T12:40:10.741Z,6.40
2018-05-16T12:41:10.750Z,6.60
2018-05-16T12:42:10.896Z,6.40
2018-05-16T12:43:10.814Z,6.20
2018-05-16T12:44:10.835Z,6.30
2018-05-16T12:45:10.849Z,6.60
2018-05-16T12:48:12.128Z,6.50
2018-05-16T12:50:11.739Z,6.90
2018-05-16T12:52:12.676Z,6.90
2018-05-16T12:54:18.604Z,6.50
2018-05-16T12:55:12.247Z,6.50
2018-05-16T12:56:12.127Z,6.40
2018-05-16T12:58:11.780Z,7.00
2018-05-16T12:59:15.044Z,6.80
2018-05-16T13:01:11.957Z,6.50
2018-05-16T13:02:12.045Z,6.00
2018-05-16T13:03:12.851Z,6.30
2018-05-16T13:04:11.192Z,6.20
2018-05-16T13:05:11.234Z,6.80
2018-05-16T13:07:12.457Z,6.10
2018-05-16T13:12:14.077Z,6.40
2018-05-16T13:13:12.613Z,6.70
2018-05-16T13:15:12.623Z,6.40
2018-05-16T13:17:12.254Z,6.80
2018-05-16T13:18:13.180Z,6.50
2018-05-16T13:19:12.323Z,6.40
2018-05-16T13:20:13.001Z,6.20
2018-05-16T13:21:12.636Z,6.10
2018-05-16T13:22:13.847Z,5.90
2018-05-16T13:26:13.560Z,6.10
2018-05-16T13:27:12.999Z,6.00
2018-05-16T13:28:12.630Z,6.00
2018-05-16T13:29:13.621Z,5.40
2018-05-16T13:30:13.602Z,5.50
2018-05-16T13:31:13.000Z,5.70
2018-05-16T13:32:12.408Z,5.40
2018-05-16T13:34:18.716Z,5.80
2018-05-16T13:35:12.604Z,5.50
2018-05-16T13:36:12.630Z,5.90
2018-05-16T13:37:12.384Z,5.90
2018-05-16T13:38:15.873Z,5.90
2018-05-16T13:39:11.954Z,6.30
2018-05-16T13:40:13.106Z,6.10
2018-05-16T13:41:12.693Z,5.70
2018-05-16T13:43:13.746Z,6.60
2018-05-16T13:44:12.909Z,6.30
2018-05-16T13:45:12.884Z,6.90
2018-05-16T13:46:13.089Z,6.30
2018-05-16T13:49:57.433Z,7.30
2018-05-16T13:55:42.672Z,6.20
2018-05-16T14:01:43.347Z,6.30
2018-05-16T14:03:42.299Z,6.30
2018-05-16T14:04:42.294Z,6.40
2018-05-16T14:07:43.586Z,6.00
2018-05-16T14:10:01.501Z,6.30
2018-05-16T14:10:43.741Z,6.40
2018-05-16T14:11:45.434Z,6.10
2018-05-16T14:12:42.430Z,6.70
2018-05-16T14:13:42.738Z,6.30
2018-05-16T14:14:42.411Z,6.20
2018-05-16T14:15:43.055Z,5.90
2018-05-16T14:16:42.835Z,6.40
2018-05-16T14:17:42.509Z,6.70
2018-05-16T14:20:45.797Z,6.40
2018-05-16T14:21:42.911Z,6.40
2018-05-16T14:22:43.639Z,6.40
2018-05-16T14:25:42.824Z,6.10
2018-05-16T14:26:42.936Z,6.20
2018-05-16T14:28:42.786Z,5.70
2018-05-16T14:30:42.828Z,5.40
2018-05-16T14:32:42.936Z,5.80
2018-05-16T14:33:43.539Z,5.50
2018-05-16T14:34:43.065Z,5.90
2018-05-16T14:35:43.479Z,5.40
2018-05-16T14:36:43.239Z,5.40
2018-05-16T14:37:43.743Z,5.20
2018-05-16T14:38:43.077Z,5.10